PWSweather.com
Personal Weather Stations
Station Observations
DW1039
Liberty & Fairfield Townships, Hamilton, OH 45011

Liberty & Fairfield TownshipsHamilton, OH 45011

Lat: 39.3933, Lon: -84.477

Elevation: 780

Station Type: Davis Vantage Pro2 (Daytime Fan Aspirated)

http://www.lfweathercenter.com/

High Low Average
Temperature 94.9°F34.9°C 70.1°F21.2°C 81.5°F27.5°C
Dew Point 73.1°F22.8°C 58.6°F14.8°C 65.2°F18.4°C
Winds 13.0 mph 20.9 kmh Calm Calm 5.0 mph SSW8.0 kmh SSW
Wind Gusts 22.0 mph35.4 kmh 3.0 mph4.8 kmh 13.0 mph20.9 kmh
Humidity 67% 46% 58%
Pressure 29.89 in1012.2 mb 29.73 in1006.8 mb -
Precipitation 0.00 in0.0 mm - -
Hour Temp Dew Point Humidity Winds Wind Gusts Pressure Precip Precip Rate Daily Precip Total
12:00 AM 75.0°F23.9°C 59.2°F15.1°C 58% 4.0 mph S6.4 kmh S 10.0 mph16.1 kmh 29.90 in1012.5 mb 0.00 in0.0 mm 0.00 in/hr0.0 mm/hr 0.00 in0.0 mm
12:10 AM 74.9°F23.8°C 59.6°F15.3°C 59% 1.0 mph SSE1.6 kmh SSE 7.0 mph11.3 kmh 29.90 in1012.5 mb 0.00 in0.0 mm 0.00 in/hr0.0 mm/hr 0.00 in0.0 mm
12:20 AM 74.6°F23.7°C 59.8°F15.4°C 60% Calm Calm 8.0 mph12.9 kmh 29.91 in1012.9 mb 0.00 in0.0 mm 0.00 in/hr0.0 mm/hr 0.00 in0.0 mm
12:30 AM 74.3°F23.5°C 59.5°F15.3°C 60% 4.0 mph S6.4 kmh S 6.0 mph9.7 kmh 29.90 in1012.5 mb 0.00 in0.0 mm 0.00 in/hr0.0 mm/hr 0.00 in0.0 mm
12:40 AM 74.0°F23.3°C 59.7°F15.4°C 61% 1.0 mph S1.6 kmh S 9.0 mph14.5 kmh 29.90 in1012.5 mb 0.00 in0.0 mm 0.00 in/hr0.0 mm/hr 0.00 in0.0 mm
12:50 AM 73.6°F23.1°C 59.8°F15.4°C 62% 4.0 mph S6.4 kmh S 9.0 mph14.5 kmh 29.90 in1012.5 mb 0.00 in0.0 mm 0.00 in/hr0.0 mm/hr 0.00 in0.0 mm
01:00 AM 73.2°F22.9°C 59.9°F15.5°C 63% 3.0 mph S4.8 kmh S 9.0 mph14.5 kmh 29.89 in1012.2 mb 0.00 in0.0 mm 0.00 in/hr0.0 mm/hr 0.00 in0.0 mm
01:10 AM 73.1°F22.8°C 59.8°F15.4°C 63% 4.0 mph S6.4 kmh S 9.0 mph14.5 kmh 29.89 in1012.2 mb 0.00 in0.0 mm 0.00 in/hr0.0 mm/hr 0.00 in0.0 mm
01:20 AM 72.8°F22.7°C 59.9°F15.5°C 64% 4.0 mph SSE6.4 kmh SSE 7.0 mph11.3 kmh 29.89 in1012.2 mb 0.00 in0.0 mm 0.00 in/hr0.0 mm/hr 0.00 in0.0 mm
01:30 AM 72.5°F22.5°C 60.1°F15.6°C 65% 3.0 mph S4.8 kmh S 10.0 mph16.1 kmh 29.88 in1011.9 mb 0.00 in0.0 mm 0.00 in/hr0.0 mm/hr 0.00 in0.0 mm
01:40 AM 72.4°F22.4°C 60.0°F15.6°C 65% 3.0 mph SE4.8 kmh SE 12.0 mph19.3 kmh 29.88 in1011.9 mb 0.00 in0.0 mm 0.00 in/hr0.0 mm/hr 0.00 in0.0 mm
01:50 AM 72.4°F22.4°C 59.6°F15.3°C 64% 6.0 mph SSE9.7 kmh SSE 11.0 mph17.7 kmh 29.87 in1011.5 mb 0.00 in0.0 mm 0.00 in/hr0.0 mm/hr 0.00 in0.0 mm
02:00 AM 72.2°F22.3°C 59.8°F15.4°C 65% 4.0 mph SE6.4 kmh SE 11.0 mph17.7 kmh 29.87 in1011.5 mb 0.00 in0.0 mm 0.00 in/hr0.0 mm/hr 0.00 in0.0 mm
02:10 AM 72.2°F22.3°C 59.8°F15.4°C 65% 4.0 mph S6.4 kmh S 12.0 mph19.3 kmh 29.87 in1011.5 mb 0.00 in0.0 mm 0.00 in/hr0.0 mm/hr 0.00 in0.0 mm
02:20 AM 72.1°F22.3°C 59.7°F15.4°C 65% 4.0 mph S6.4 kmh S 10.0 mph16.1 kmh 29.86 in1011.2 mb 0.00 in0.0 mm 0.00 in/hr0.0 mm/hr 0.00 in0.0 mm
02:30 AM 72.2°F22.3°C 59.8°F15.4°C 65% 2.0 mph SE3.2 kmh SE 12.0 mph19.3 kmh 29.86 in1011.2 mb 0.00 in0.0 mm 0.00 in/hr0.0 mm/hr 0.00 in0.0 mm
02:40 AM 72.1°F22.3°C 60.1°F15.6°C 66% 4.0 mph SSE6.4 kmh SSE 7.0 mph11.3 kmh 29.86 in1011.2 mb 0.00 in0.0 mm 0.00 in/hr0.0 mm/hr 0.00 in0.0 mm
02:50 AM 71.9°F22.2°C 59.9°F15.5°C 66% 5.0 mph SSE8.0 kmh SSE 5.0 mph8.0 kmh 29.86 in1011.2 mb 0.00 in0.0 mm 0.00 in/hr0.0 mm/hr 0.00 in0.0 mm
03:00 AM 71.6°F22.0°C 59.7°F15.4°C 66% 2.0 mph SSE3.2 kmh SSE 7.0 mph11.3 kmh 29.85 in1010.8 mb 0.00 in0.0 mm 0.00 in/hr0.0 mm/hr 0.00 in0.0 mm
03:10 AM 71.6°F22.0°C 60.1°F15.6°C 67% 9.0 mph SSE14.5 kmh SSE 10.0 mph16.1 kmh 29.85 in1010.8 mb 0.00 in0.0 mm 0.00 in/hr0.0 mm/hr 0.00 in0.0 mm
03:20 AM 71.5°F21.9°C 59.6°F15.3°C 66% 6.0 mph S9.7 kmh S 10.0 mph16.1 kmh 29.84 in1010.5 mb 0.00 in0.0 mm 0.00 in/hr0.0 mm/hr 0.00 in0.0 mm
03:30 AM 71.3°F21.8°C 59.4°F15.2°C 66% 4.0 mph S6.4 kmh S 11.0 mph17.7 kmh 29.84 in1010.5 mb 0.00 in0.0 mm 0.00 in/hr0.0 mm/hr 0.00 in0.0 mm
03:40 AM 71.3°F21.8°C 59.4°F15.2°C 66% 5.0 mph S8.0 kmh S 11.0 mph17.7 kmh 29.84 in1010.5 mb 0.00 in0.0 mm 0.00 in/hr0.0 mm/hr 0.00 in0.0 mm
03:50 AM 71.2°F21.8°C 59.7°F15.4°C 67% 5.0 mph SSE8.0 kmh SSE 12.0 mph19.3 kmh 29.84 in1010.5 mb 0.00 in0.0 mm 0.00 in/hr0.0 mm/hr 0.00 in0.0 mm
04:00 AM 71.2°F21.8°C 59.7°F15.4°C 67% Calm Calm 11.0 mph17.7 kmh 29.84 in1010.5 mb 0.00 in0.0 mm 0.00 in/hr0.0 mm/hr 0.00 in0.0 mm
04:10 AM 71.0°F21.7°C 59.1°F15.1°C 66% 9.0 mph S14.5 kmh S 11.0 mph17.7 kmh 29.83 in1010.2 mb 0.00 in0.0 mm 0.00 in/hr0.0 mm/hr 0.00 in0.0 mm
04:20 AM 70.9°F21.6°C 59.4°F15.2°C 67% 4.0 mph S6.4 kmh S 9.0 mph14.5 kmh 29.83 in1010.2 mb 0.00 in0.0 mm 0.00 in/hr0.0 mm/hr 0.00 in0.0 mm
04:30 AM 70.7°F21.5°C 59.2°F15.1°C 67% 4.0 mph S6.4 kmh S 10.0 mph16.1 kmh 29.83 in1010.2 mb 0.00 in0.0 mm 0.00 in/hr0.0 mm/hr 0.00 in0.0 mm
04:40 AM 70.7°F21.5°C 58.8°F14.9°C 66% Calm Calm 10.0 mph16.1 kmh 29.83 in1010.2 mb 0.00 in0.0 mm 0.00 in/hr0.0 mm/hr 0.00 in0.0 mm
04:50 AM 70.8°F21.6°C 59.3°F15.2°C 67% Calm Calm 13.0 mph20.9 kmh 29.83 in1010.2 mb 0.00 in0.0 mm 0.00 in/hr0.0 mm/hr 0.00 in0.0 mm
05:00 AM 70.8°F21.6°C 58.9°F14.9°C 66% 1.0 mph SSE1.6 kmh SSE 10.0 mph16.1 kmh 29.83 in1010.2 mb 0.00 in0.0 mm 0.00 in/hr0.0 mm/hr 0.00 in0.0 mm
05:10 AM 70.7°F21.5°C 58.8°F14.9°C 66% 1.0 mph S1.6 kmh S 9.0 mph14.5 kmh 29.84 in1010.5 mb 0.00 in0.0 mm 0.00 in/hr0.0 mm/hr 0.00 in0.0 mm
05:20 AM 70.7°F21.5°C 58.8°F14.9°C 66% 2.0 mph S3.2 kmh S 6.0 mph9.7 kmh 29.84 in1010.5 mb 0.00 in0.0 mm 0.00 in/hr0.0 mm/hr 0.00 in0.0 mm
05:30 AM 70.6°F21.4°C 58.7°F14.8°C 66% 7.0 mph S11.3 kmh S 8.0 mph12.9 kmh 29.84 in1010.5 mb 0.00 in0.0 mm 0.00 in/hr0.0 mm/hr 0.00 in0.0 mm
05:40 AM 70.6°F21.4°C 58.7°F14.8°C 66% 1.0 mph S1.6 kmh S 10.0 mph16.1 kmh 29.84 in1010.5 mb 0.00 in0.0 mm 0.00 in/hr0.0 mm/hr 0.00 in0.0 mm
05:50 AM 70.6°F21.4°C 59.1°F15.1°C 67% 2.0 mph S3.2 kmh S 6.0 mph9.7 kmh 29.84 in1010.5 mb 0.00 in0.0 mm 0.00 in/hr0.0 mm/hr 0.00 in0.0 mm
06:00 AM 70.5°F21.4°C 58.6°F14.8°C 66% Calm Calm 6.0 mph9.7 kmh 29.85 in1010.8 mb 0.00 in0.0 mm 0.00 in/hr0.0 mm/hr 0.00 in0.0 mm
06:10 AM 70.1°F21.2°C 58.7°F14.8°C 67% Calm Calm 4.0 mph6.4 kmh 29.86 in1011.2 mb 0.00 in0.0 mm 0.00 in/hr0.0 mm/hr 0.00 in0.0 mm
06:20 AM 70.6°F21.4°C 59.1°F15.1°C 67% Calm Calm 4.0 mph6.4 kmh 29.86 in1011.2 mb 0.00 in0.0 mm 0.00 in/hr0.0 mm/hr 0.00 in0.0 mm
06:50 AM 71.1°F21.7°C 59.2°F15.1°C 66% Calm Calm 5.0 mph8.0 kmh 29.86 in1011.2 mb 0.00 in0.0 mm 0.00 in/hr0.0 mm/hr 0.00 in0.0 mm
07:00 AM 71.0°F21.7°C 58.7°F14.8°C 65% 1.0 mph SSE1.6 kmh SSE 5.0 mph8.0 kmh 29.86 in1011.2 mb 0.00 in0.0 mm 0.00 in/hr0.0 mm/hr 0.00 in0.0 mm
07:10 AM 71.1°F21.7°C 59.2°F15.1°C 66% 2.0 mph S3.2 kmh S 4.0 mph6.4 kmh 29.87 in1011.5 mb 0.00 in0.0 mm 0.00 in/hr0.0 mm/hr 0.00 in0.0 mm
07:20 AM 71.0°F21.7°C 59.1°F15.1°C 66% Calm Calm 4.0 mph6.4 kmh 29.86 in1011.2 mb 0.00 in0.0 mm 0.00 in/hr0.0 mm/hr 0.00 in0.0 mm
07:30 AM 70.9°F21.6°C 59.4°F15.2°C 67% 1.0 mph S1.6 kmh S 5.0 mph8.0 kmh 29.86 in1011.2 mb 0.00 in0.0 mm 0.00 in/hr0.0 mm/hr 0.00 in0.0 mm
07:40 AM 71.3°F21.8°C 59.4°F15.2°C 66% Calm Calm 3.0 mph4.8 kmh 29.87 in1011.5 mb 0.00 in0.0 mm 0.00 in/hr0.0 mm/hr 0.00 in0.0 mm
07:50 AM 71.6°F22.0°C 58.8°F14.9°C 64% 2.0 mph S3.2 kmh S 9.0 mph14.5 kmh 29.87 in1011.5 mb 0.00 in0.0 mm 0.00 in/hr0.0 mm/hr 0.00 in0.0 mm
08:00 AM 72.2°F22.3°C 59.4°F15.2°C 64% 7.0 mph S11.3 kmh S 7.0 mph11.3 kmh 29.86 in1011.2 mb 0.00 in0.0 mm 0.00 in/hr0.0 mm/hr 0.00 in0.0 mm
08:10 AM 72.9°F22.7°C 59.6°F15.3°C 63% 7.0 mph SW11.3 kmh SW 9.0 mph14.5 kmh 29.86 in1011.2 mb 0.00 in0.0 mm 0.00 in/hr0.0 mm/hr 0.00 in0.0 mm
08:20 AM 73.3°F22.9°C 59.1°F15.1°C 61% 1.0 mph SSW1.6 kmh SSW 10.0 mph16.1 kmh 29.85 in1010.8 mb 0.00 in0.0 mm 0.00 in/hr0.0 mm/hr 0.00 in0.0 mm
08:30 AM 73.9°F23.3°C 59.6°F15.3°C 61% 5.0 mph S8.0 kmh S 9.0 mph14.5 kmh 29.85 in1010.8 mb 0.00 in0.0 mm 0.00 in/hr0.0 mm/hr 0.00 in0.0 mm
08:40 AM 74.7°F23.7°C 59.9°F15.5°C 60% 6.0 mph S9.7 kmh S 11.0 mph17.7 kmh 29.85 in1010.8 mb 0.00 in0.0 mm 0.00 in/hr0.0 mm/hr 0.00 in0.0 mm
08:50 AM 75.6°F24.2°C 60.3°F15.7°C 59% 4.0 mph SSW6.4 kmh SSW 16.0 mph25.7 kmh 29.85 in1010.8 mb 0.00 in0.0 mm 0.00 in/hr0.0 mm/hr 0.00 in0.0 mm
09:00 AM 76.6°F24.8°C 60.2°F15.7°C 57% 4.0 mph SSW6.4 kmh SSW 14.0 mph22.5 kmh 29.85 in1010.8 mb 0.00 in0.0 mm 0.00 in/hr0.0 mm/hr 0.00 in0.0 mm
09:10 AM 77.1°F25.1°C 60.2°F15.7°C 56% 4.0 mph SW6.4 kmh SW 10.0 mph16.1 kmh 29.85 in1010.8 mb 0.00 in0.0 mm 0.00 in/hr0.0 mm/hr 0.00 in0.0 mm
09:20 AM 77.7°F25.4°C 60.8°F16.0°C 56% 4.0 mph SSW6.4 kmh SSW 13.0 mph20.9 kmh 29.85 in1010.8 mb 0.00 in0.0 mm 0.00 in/hr0.0 mm/hr 0.00 in0.0 mm
09:30 AM 77.9°F25.5°C 61.0°F16.1°C 56% 2.0 mph SSW3.2 kmh SSW 13.0 mph20.9 kmh 29.85 in1010.8 mb 0.00 in0.0 mm 0.00 in/hr0.0 mm/hr 0.00 in0.0 mm
09:40 AM 78.4°F25.8°C 61.9°F16.6°C 57% 5.0 mph SW8.0 kmh SW 15.0 mph24.1 kmh 29.85 in1010.8 mb 0.00 in0.0 mm 0.00 in/hr0.0 mm/hr 0.00 in0.0 mm
09:50 AM 78.9°F26.1°C 62.4°F16.9°C 57% 2.0 mph W3.2 kmh W 11.0 mph17.7 kmh 29.85 in1010.8 mb 0.00 in0.0 mm 0.00 in/hr0.0 mm/hr 0.00 in0.0 mm
10:00 AM 78.9°F26.1°C 62.9°F17.2°C 58% 6.0 mph SW9.7 kmh SW 15.0 mph24.1 kmh 29.85 in1010.8 mb 0.00 in0.0 mm 0.00 in/hr0.0 mm/hr 0.00 in0.0 mm
10:10 AM 79.8°F26.6°C 63.7°F17.6°C 58% 1.0 mph SW1.6 kmh SW 10.0 mph16.1 kmh 29.84 in1010.5 mb 0.00 in0.0 mm 0.00 in/hr0.0 mm/hr 0.00 in0.0 mm
10:20 AM 79.8°F26.6°C 64.2°F17.9°C 59% 3.0 mph SW4.8 kmh SW 12.0 mph19.3 kmh 29.84 in1010.5 mb 0.00 in0.0 mm 0.00 in/hr0.0 mm/hr 0.00 in0.0 mm
10:30 AM 80.7°F27.1°C 64.6°F18.1°C 58% 12.0 mph WSW19.3 kmh WSW 13.0 mph20.9 kmh 29.84 in1010.5 mb 0.00 in0.0 mm 0.00 in/hr0.0 mm/hr 0.00 in0.0 mm
10:40 AM 81.5°F27.5°C 66.3°F19.1°C 60% 13.0 mph WSW20.9 kmh WSW 15.0 mph24.1 kmh 29.84 in1010.5 mb 0.00 in0.0 mm 0.00 in/hr0.0 mm/hr 0.00 in0.0 mm
10:50 AM 81.7°F27.6°C 66.5°F19.2°C 60% 3.0 mph WSW4.8 kmh WSW 10.0 mph16.1 kmh 29.84 in1010.5 mb 0.00 in0.0 mm 0.00 in/hr0.0 mm/hr 0.00 in0.0 mm
11:00 AM 82.0°F27.8°C 66.8°F19.3°C 60% 3.0 mph WSW4.8 kmh WSW 15.0 mph24.1 kmh 29.84 in1010.5 mb 0.00 in0.0 mm 0.00 in/hr0.0 mm/hr 0.00 in0.0 mm
11:10 AM 82.4°F28.0°C 67.1°F19.5°C 60% 5.0 mph SW8.0 kmh SW 15.0 mph24.1 kmh 29.84 in1010.5 mb 0.00 in0.0 mm 0.00 in/hr0.0 mm/hr 0.00 in0.0 mm
11:20 AM 83.4°F28.6°C 67.6°F19.8°C 59% 6.0 mph SW9.7 kmh SW 11.0 mph17.7 kmh 29.84 in1010.5 mb 0.00 in0.0 mm 0.00 in/hr0.0 mm/hr 0.00 in0.0 mm
11:30 AM 83.8°F28.8°C 68.5°F20.3°C 60% 11.0 mph S17.7 kmh S 18.0 mph29.0 kmh 29.84 in1010.5 mb 0.00 in0.0 mm 0.00 in/hr0.0 mm/hr 0.00 in0.0 mm
11:40 AM 84.1°F28.9°C 68.2°F20.1°C 59% 7.0 mph WNW11.3 kmh WNW 16.0 mph25.7 kmh 29.83 in1010.2 mb 0.00 in0.0 mm 0.00 in/hr0.0 mm/hr 0.00 in0.0 mm
11:50 AM 84.4°F29.1°C 69.0°F20.6°C 60% 10.0 mph W16.1 kmh W 15.0 mph24.1 kmh 29.83 in1010.2 mb 0.00 in0.0 mm 0.00 in/hr0.0 mm/hr 0.00 in0.0 mm
12:00 PM 85.3°F29.6°C 69.4°F20.8°C 59% 1.0 mph SSW1.6 kmh SSW 13.0 mph20.9 kmh 29.83 in1010.2 mb 0.00 in0.0 mm 0.00 in/hr0.0 mm/hr 0.00 in0.0 mm
12:10 PM 85.6°F29.8°C 70.1°F21.2°C 60% 10.0 mph W16.1 kmh W 18.0 mph29.0 kmh 29.83 in1010.2 mb 0.00 in0.0 mm 0.00 in/hr0.0 mm/hr 0.00 in0.0 mm
12:20 PM 86.4°F30.2°C 70.4°F21.3°C 59% 6.0 mph S9.7 kmh S 11.0 mph17.7 kmh 29.83 in1010.2 mb 0.00 in0.0 mm 0.00 in/hr0.0 mm/hr 0.00 in0.0 mm
12:30 PM 85.9°F29.9°C 70.4°F21.3°C 60% 7.0 mph SSW11.3 kmh SSW 15.0 mph24.1 kmh 29.82 in1009.8 mb 0.00 in0.0 mm 0.00 in/hr0.0 mm/hr 0.00 in0.0 mm
12:40 PM 87.1°F30.6°C 71.0°F21.7°C 59% 4.0 mph SW6.4 kmh SW 15.0 mph24.1 kmh 29.82 in1009.8 mb 0.00 in0.0 mm 0.00 in/hr0.0 mm/hr 0.00 in0.0 mm
12:50 PM 88.0°F31.1°C 71.4°F21.9°C 58% 2.0 mph S3.2 kmh S 14.0 mph22.5 kmh 29.82 in1009.8 mb 0.00 in0.0 mm 0.00 in/hr0.0 mm/hr 0.00 in0.0 mm
01:00 PM 88.2°F31.2°C 72.1°F22.3°C 59% 11.0 mph WSW17.7 kmh WSW 16.0 mph25.7 kmh 29.81 in1009.5 mb 0.00 in0.0 mm 0.00 in/hr0.0 mm/hr 0.00 in0.0 mm
01:10 PM 88.4°F31.3°C 71.8°F22.1°C 58% 3.0 mph SW4.8 kmh SW 21.0 mph33.8 kmh 29.81 in1009.5 mb 0.00 in0.0 mm 0.00 in/hr0.0 mm/hr 0.00 in0.0 mm
01:20 PM 89.6°F32.0°C 72.4°F22.4°C 57% 3.0 mph SW4.8 kmh SW 15.0 mph24.1 kmh 29.81 in1009.5 mb 0.00 in0.0 mm 0.00 in/hr0.0 mm/hr 0.00 in0.0 mm
01:30 PM 89.4°F31.9°C 72.2°F22.3°C 57% 7.0 mph WSW11.3 kmh WSW 16.0 mph25.7 kmh 29.80 in1009.1 mb 0.00 in0.0 mm 0.00 in/hr0.0 mm/hr 0.00 in0.0 mm
01:40 PM 89.7°F32.1°C 71.9°F22.2°C 56% 5.0 mph SW8.0 kmh SW 13.0 mph20.9 kmh 29.80 in1009.1 mb 0.00 in0.0 mm 0.00 in/hr0.0 mm/hr 0.00 in0.0 mm
01:50 PM 89.9°F32.2°C 71.6°F22.0°C 55% 6.0 mph SW9.7 kmh SW 20.0 mph32.2 kmh 29.80 in1009.1 mb 0.00 in0.0 mm 0.00 in/hr0.0 mm/hr 0.00 in0.0 mm
02:00 PM 91.0°F32.8°C 72.1°F22.3°C 54% 4.0 mph WSW6.4 kmh WSW 18.0 mph29.0 kmh 29.80 in1009.1 mb 0.00 in0.0 mm 0.00 in/hr0.0 mm/hr 0.00 in0.0 mm
02:10 PM 91.3°F32.9°C 72.3°F22.4°C 54% 5.0 mph SW8.0 kmh SW 15.0 mph24.1 kmh 29.80 in1009.1 mb 0.00 in0.0 mm 0.00 in/hr0.0 mm/hr 0.00 in0.0 mm
02:20 PM 91.7°F33.2°C 71.6°F22.0°C 52% 7.0 mph WSW11.3 kmh WSW 22.0 mph35.4 kmh 29.80 in1009.1 mb 0.00 in0.0 mm 0.00 in/hr0.0 mm/hr 0.00 in0.0 mm
02:30 PM 92.0°F33.3°C 71.9°F22.2°C 52% 2.0 mph SW3.2 kmh SW 19.0 mph30.6 kmh 29.79 in1008.8 mb 0.00 in0.0 mm 0.00 in/hr0.0 mm/hr 0.00 in0.0 mm
02:40 PM 92.0°F33.3°C 71.9°F22.2°C 52% 4.0 mph SW6.4 kmh SW 18.0 mph29.0 kmh 29.78 in1008.5 mb 0.00 in0.0 mm 0.00 in/hr0.0 mm/hr 0.00 in0.0 mm
02:50 PM 91.6°F33.1°C 71.5°F21.9°C 52% 10.0 mph WSW16.1 kmh WSW 16.0 mph25.7 kmh 29.78 in1008.5 mb 0.00 in0.0 mm 0.00 in/hr0.0 mm/hr 0.00 in0.0 mm
03:00 PM 92.5°F33.6°C 71.8°F22.1°C 51% 12.0 mph SW19.3 kmh SW 20.0 mph32.2 kmh 29.78 in1008.5 mb 0.00 in0.0 mm 0.00 in/hr0.0 mm/hr 0.00 in0.0 mm
03:10 PM 92.4°F33.6°C 71.7°F22.1°C 51% 4.0 mph SW6.4 kmh SW 15.0 mph24.1 kmh 29.77 in1008.1 mb 0.00 in0.0 mm 0.00 in/hr0.0 mm/hr 0.00 in0.0 mm
03:20 PM 92.2°F33.4°C 72.1°F22.3°C 52% 3.0 mph WSW4.8 kmh WSW 18.0 mph29.0 kmh 29.77 in1008.1 mb 0.00 in0.0 mm 0.00 in/hr0.0 mm/hr 0.00 in0.0 mm
03:30 PM 93.0°F33.9°C 72.2°F22.3°C 51% 13.0 mph SW20.9 kmh SW 16.0 mph25.7 kmh 29.77 in1008.1 mb 0.00 in0.0 mm 0.00 in/hr0.0 mm/hr 0.00 in0.0 mm
03:40 PM 93.2°F34.0°C 73.0°F22.8°C 52% 3.0 mph WSW4.8 kmh WSW 16.0 mph25.7 kmh 29.76 in1007.8 mb 0.00 in0.0 mm 0.00 in/hr0.0 mm/hr 0.00 in0.0 mm
03:50 PM 94.6°F34.8°C 73.1°F22.8°C 50% 13.0 mph SW20.9 kmh SW 13.0 mph20.9 kmh 29.76 in1007.8 mb 0.00 in0.0 mm 0.00 in/hr0.0 mm/hr 0.00 in0.0 mm
04:00 PM 93.4°F34.1°C 72.6°F22.6°C 51% 3.0 mph SW4.8 kmh SW 18.0 mph29.0 kmh 29.75 in1007.5 mb 0.00 in0.0 mm 0.00 in/hr0.0 mm/hr 0.00 in0.0 mm
04:10 PM 94.0°F34.4°C 71.9°F22.2°C 49% 6.0 mph SW9.7 kmh SW 20.0 mph32.2 kmh 29.75 in1007.5 mb 0.00 in0.0 mm 0.00 in/hr0.0 mm/hr 0.00 in0.0 mm
04:20 PM 93.7°F34.3°C 71.7°F22.1°C 49% 8.0 mph SW12.9 kmh SW 17.0 mph27.4 kmh 29.75 in1007.5 mb 0.00 in0.0 mm 0.00 in/hr0.0 mm/hr 0.00 in0.0 mm
04:30 PM 92.9°F33.8°C 71.5°F21.9°C 50% 11.0 mph SW17.7 kmh SW 18.0 mph29.0 kmh 29.75 in1007.5 mb 0.00 in0.0 mm 0.00 in/hr0.0 mm/hr 0.00 in0.0 mm
04:40 PM 94.2°F34.6°C 71.5°F21.9°C 48% 12.0 mph SW19.3 kmh SW 17.0 mph27.4 kmh 29.75 in1007.5 mb 0.00 in0.0 mm 0.00 in/hr0.0 mm/hr 0.00 in0.0 mm
04:50 PM 94.0°F34.4°C 71.3°F21.8°C 48% 9.0 mph SW14.5 kmh SW 14.0 mph22.5 kmh 29.74 in1007.1 mb 0.00 in0.0 mm 0.00 in/hr0.0 mm/hr 0.00 in0.0 mm
05:01 PM 94.2°F34.6°C 71.5°F21.9°C 48% 9.0 mph WSW14.5 kmh WSW 12.0 mph19.3 kmh 29.74 in1007.1 mb 0.00 in0.0 mm 0.00 in/hr0.0 mm/hr 0.00 in0.0 mm
05:10 PM 94.1°F34.5°C 70.8°F21.6°C 47% 6.0 mph SSW9.7 kmh SSW 19.0 mph30.6 kmh 29.74 in1007.1 mb 0.00 in0.0 mm 0.00 in/hr0.0 mm/hr 0.00 in0.0 mm
05:20 PM 94.9°F34.9°C 70.9°F21.6°C 46% 10.0 mph WSW16.1 kmh WSW 12.0 mph19.3 kmh 29.74 in1007.1 mb 0.00 in0.0 mm 0.00 in/hr0.0 mm/hr 0.00 in0.0 mm
05:30 PM 93.9°F34.4°C 70.6°F21.4°C 47% 10.0 mph WSW16.1 kmh WSW 14.0 mph22.5 kmh 29.74 in1007.1 mb 0.00 in0.0 mm 0.00 in/hr0.0 mm/hr 0.00 in0.0 mm
05:40 PM 94.6°F34.8°C 71.3°F21.8°C 47% 2.0 mph SW3.2 kmh SW 10.0 mph16.1 kmh 29.74 in1007.1 mb 0.00 in0.0 mm 0.00 in/hr0.0 mm/hr 0.00 in0.0 mm
05:50 PM 94.1°F34.5°C 70.8°F21.6°C 47% 9.0 mph W14.5 kmh W 16.0 mph25.7 kmh 29.74 in1007.1 mb 0.00 in0.0 mm 0.00 in/hr0.0 mm/hr 0.00 in0.0 mm
06:00 PM 93.7°F34.3°C 70.4°F21.3°C 47% 10.0 mph W16.1 kmh W 17.0 mph27.4 kmh 29.74 in1007.1 mb 0.00 in0.0 mm 0.00 in/hr0.0 mm/hr 0.00 in0.0 mm
06:10 PM 93.7°F34.3°C 70.4°F21.3°C 47% 3.0 mph SW4.8 kmh SW 17.0 mph27.4 kmh 29.73 in1006.8 mb 0.00 in0.0 mm 0.00 in/hr0.0 mm/hr 0.00 in0.0 mm
06:20 PM 93.3°F34.1°C 70.1°F21.2°C 47% 6.0 mph SW9.7 kmh SW 17.0 mph27.4 kmh 29.73 in1006.8 mb 0.00 in0.0 mm 0.00 in/hr0.0 mm/hr 0.00 in0.0 mm
06:30 PM 92.8°F33.8°C 70.2°F21.2°C 48% 6.0 mph W9.7 kmh W 21.0 mph33.8 kmh 29.73 in1006.8 mb 0.00 in0.0 mm 0.00 in/hr0.0 mm/hr 0.00 in0.0 mm
06:40 PM 92.6°F33.7°C 69.4°F20.8°C 47% 8.0 mph WSW12.9 kmh WSW 18.0 mph29.0 kmh 29.73 in1006.8 mb 0.00 in0.0 mm 0.00 in/hr0.0 mm/hr 0.00 in0.0 mm
06:50 PM 92.4°F33.6°C 69.9°F21.1°C 48% 4.0 mph SW6.4 kmh SW 17.0 mph27.4 kmh 29.73 in1006.8 mb 0.00 in0.0 mm 0.00 in/hr0.0 mm/hr 0.00 in0.0 mm
07:00 PM 92.1°F33.4°C 69.6°F20.9°C 48% 6.0 mph SW9.7 kmh SW 15.0 mph24.1 kmh 29.73 in1006.8 mb 0.00 in0.0 mm 0.00 in/hr0.0 mm/hr 0.00 in0.0 mm
07:10 PM 92.0°F33.3°C 69.5°F20.8°C 48% 4.0 mph SW6.4 kmh SW 14.0 mph22.5 kmh 29.73 in1006.8 mb 0.00 in0.0 mm 0.00 in/hr0.0 mm/hr 0.00 in0.0 mm
07:20 PM 91.6°F33.1°C 69.8°F21.0°C 49% 3.0 mph SW4.8 kmh SW 13.0 mph20.9 kmh 29.73 in1006.8 mb 0.00 in0.0 mm 0.00 in/hr0.0 mm/hr 0.00 in0.0 mm
07:30 PM 91.2°F32.9°C 70.0°F21.1°C 50% 5.0 mph SSW8.0 kmh SSW 14.0 mph22.5 kmh 29.73 in1006.8 mb 0.00 in0.0 mm 0.00 in/hr0.0 mm/hr 0.00 in0.0 mm
07:40 PM 90.8°F32.7°C 70.8°F21.6°C 52% 2.0 mph SW3.2 kmh SW 12.0 mph19.3 kmh 29.73 in1006.8 mb 0.00 in0.0 mm 0.00 in/hr0.0 mm/hr 0.00 in0.0 mm
07:50 PM 90.4°F32.4°C 71.0°F21.7°C 53% 1.0 mph SW1.6 kmh SW 8.0 mph12.9 kmh 29.73 in1006.8 mb 0.00 in0.0 mm 0.00 in/hr0.0 mm/hr 0.00 in0.0 mm
08:00 PM 90.1°F32.3°C 71.2°F21.8°C 54% 5.0 mph WSW8.0 kmh WSW 16.0 mph25.7 kmh 29.73 in1006.8 mb 0.00 in0.0 mm 0.00 in/hr0.0 mm/hr 0.00 in0.0 mm
08:10 PM 89.7°F32.1°C 71.4°F21.9°C 55% 1.0 mph SW1.6 kmh SW 10.0 mph16.1 kmh 29.74 in1007.1 mb 0.00 in0.0 mm 0.00 in/hr0.0 mm/hr 0.00 in0.0 mm
08:20 PM 89.2°F31.8°C 71.5°F21.9°C 56% Calm Calm 7.0 mph11.3 kmh 29.74 in1007.1 mb 0.00 in0.0 mm 0.00 in/hr0.0 mm/hr 0.00 in0.0 mm
08:30 PM 88.7°F31.5°C 71.5°F21.9°C 57% Calm Calm 6.0 mph9.7 kmh 29.74 in1007.1 mb 0.00 in0.0 mm 0.00 in/hr0.0 mm/hr 0.00 in0.0 mm
08:40 PM 88.4°F31.3°C 71.8°F22.1°C 58% 5.0 mph SSW8.0 kmh SSW 6.0 mph9.7 kmh 29.74 in1007.1 mb 0.00 in0.0 mm 0.00 in/hr0.0 mm/hr 0.00 in0.0 mm
08:50 PM 88.0°F31.1°C 71.9°F22.2°C 59% 3.0 mph SSW4.8 kmh SSW 7.0 mph11.3 kmh 29.73 in1006.8 mb 0.00 in0.0 mm 0.00 in/hr0.0 mm/hr 0.00 in0.0 mm
09:00 PM 87.5°F30.8°C 71.9°F22.2°C 60% Calm Calm 5.0 mph8.0 kmh 29.73 in1006.8 mb 0.00 in0.0 mm 0.00 in/hr0.0 mm/hr 0.00 in0.0 mm
09:10 PM 87.4°F30.8°C 72.3°F22.4°C 61% 2.0 mph S3.2 kmh S 6.0 mph9.7 kmh 29.73 in1006.8 mb 0.00 in0.0 mm 0.00 in/hr0.0 mm/hr 0.00 in0.0 mm
09:20 PM 87.0°F30.6°C 72.4°F22.4°C 62% Calm Calm 6.0 mph9.7 kmh 29.73 in1006.8 mb 0.00 in0.0 mm 0.00 in/hr0.0 mm/hr 0.00 in0.0 mm
09:30 PM 86.9°F30.5°C 72.3°F22.4°C 62% 4.0 mph SSW6.4 kmh SSW 6.0 mph9.7 kmh 29.73 in1006.8 mb 0.00 in0.0 mm 0.00 in/hr0.0 mm/hr 0.00 in0.0 mm
09:40 PM 86.8°F30.4°C 72.2°F22.3°C 62% 3.0 mph SSW4.8 kmh SSW 6.0 mph9.7 kmh 29.74 in1007.1 mb 0.00 in0.0 mm 0.00 in/hr0.0 mm/hr 0.00 in0.0 mm
09:50 PM 86.6°F30.3°C 72.5°F22.5°C 63% 2.0 mph SW3.2 kmh SW 9.0 mph14.5 kmh 29.73 in1006.8 mb 0.00 in0.0 mm 0.00 in/hr0.0 mm/hr 0.00 in0.0 mm
10:00 PM 86.4°F30.2°C 72.3°F22.4°C 63% 3.0 mph SW4.8 kmh SW 11.0 mph17.7 kmh 29.73 in1006.8 mb 0.00 in0.0 mm 0.00 in/hr0.0 mm/hr 0.00 in0.0 mm
10:10 PM 86.1°F30.1°C 72.0°F22.2°C 63% 5.0 mph S8.0 kmh S 12.0 mph19.3 kmh 29.72 in1006.4 mb 0.00 in0.0 mm 0.00 in/hr0.0 mm/hr 0.00 in0.0 mm
10:20 PM 85.9°F29.9°C 72.3°F22.4°C 64% 2.0 mph S3.2 kmh S 12.0 mph19.3 kmh 29.73 in1006.8 mb 0.00 in0.0 mm 0.00 in/hr0.0 mm/hr 0.00 in0.0 mm
10:30 PM 85.9°F29.9°C 72.3°F22.4°C 64% 2.0 mph SSW3.2 kmh SSW 13.0 mph20.9 kmh 29.74 in1007.1 mb 0.00 in0.0 mm 0.00 in/hr0.0 mm/hr 0.00 in0.0 mm
10:40 PM 85.8°F29.9°C 71.8°F22.1°C 63% 3.0 mph WSW4.8 kmh WSW 10.0 mph16.1 kmh 29.75 in1007.5 mb 0.00 in0.0 mm 0.00 in/hr0.0 mm/hr 0.00 in0.0 mm
10:50 PM 85.7°F29.8°C 71.2°F21.8°C 62% 3.0 mph SW4.8 kmh SW 10.0 mph16.1 kmh 29.74 in1007.1 mb 0.00 in0.0 mm 0.00 in/hr0.0 mm/hr 0.00 in0.0 mm
11:00 PM 85.8°F29.9°C 70.3°F21.3°C 60% 3.0 mph SW4.8 kmh SW 17.0 mph27.4 kmh 29.73 in1006.8 mb 0.00 in0.0 mm 0.00 in/hr0.0 mm/hr 0.00 in0.0 mm
11:10 PM 85.7°F29.8°C 69.7°F20.9°C 59% 2.0 mph SW3.2 kmh SW 21.0 mph33.8 kmh 29.73 in1006.8 mb 0.00 in0.0 mm 0.00 in/hr0.0 mm/hr 0.00 in0.0 mm
11:20 PM 85.7°F29.8°C 69.7°F20.9°C 59% 11.0 mph SSW17.7 kmh SSW 14.0 mph22.5 kmh 29.73 in1006.8 mb 0.00 in0.0 mm 0.00 in/hr0.0 mm/hr 0.00 in0.0 mm
11:30 PM 85.5°F29.7°C 69.6°F20.9°C 59% 7.0 mph WSW11.3 kmh WSW 23.0 mph37.0 kmh 29.72 in1006.4 mb 0.00 in0.0 mm 0.00 in/hr0.0 mm/hr 0.00 in0.0 mm
11:40 PM 85.3°F29.6°C 69.4°F20.8°C 59% 10.0 mph SSW16.1 kmh SSW 13.0 mph20.9 kmh 29.72 in1006.4 mb 0.00 in0.0 mm 0.00 in/hr0.0 mm/hr 0.00 in0.0 mm
11:50 PM 85.1°F29.5°C 69.2°F20.7°C 59% 7.0 mph WSW11.3 kmh WSW 18.0 mph29.0 kmh 29.72 in1006.4 mb 0.00 in0.0 mm 0.00 in/hr0.0 mm/hr 0.00 in0.0 mm